createdAt,value
2023-11-24T00:00:57.643Z,3.07
2023-11-24T00:03:26.559Z,2.50
2023-11-24T00:05:55.080Z,2.20
2023-11-24T00:08:23.420Z,2.37
2023-11-24T00:10:53.038Z,2.40
2023-11-24T00:13:22.254Z,2.93
2023-11-24T00:15:52.855Z,2.93
2023-11-24T00:18:22.523Z,3.00
2023-11-24T00:20:50.927Z,2.33
2023-11-24T00:23:20.135Z,2.87
2023-11-24T00:25:48.806Z,2.67
2023-11-24T00:28:19.931Z,2.20
2023-11-24T00:30:49.619Z,2.77
2023-11-24T00:33:19.899Z,2.60
2023-11-24T00:35:48.380Z,2.83
2023-11-24T00:38:17.111Z,2.40
2023-11-24T00:40:45.393Z,2.43
2023-11-24T00:43:16.556Z,2.63
2023-11-24T00:45:46.265Z,3.83
2023-11-24T00:48:14.514Z,2.93
2023-11-24T00:50:42.947Z,2.33
2023-11-24T00:53:11.255Z,2.50
2023-11-24T00:55:39.609Z,2.63
2023-11-24T00:58:08.211Z,2.37
2023-11-24T01:00:38.051Z,2.73
2023-11-24T01:03:07.671Z,3.27
2023-11-24T01:05:36.067Z,3.17
2023-11-24T01:08:04.856Z,2.90
2023-11-24T01:10:33.284Z,3.13
2023-11-24T01:13:01.770Z,2.67
2023-11-24T01:15:30.146Z,2.30
2023-11-24T01:17:58.699Z,2.33
2023-11-24T01:20:28.361Z,3.13
2023-11-24T01:22:57.073Z,3.07
2023-11-24T01:25:25.210Z,2.97
2023-11-24T01:27:53.455Z,2.53
2023-11-24T01:30:22.125Z,2.23
2023-11-24T01:32:50.440Z,3.47
2023-11-24T01:35:20.021Z,2.47
2023-11-24T01:37:49.735Z,1.70
2023-11-24T01:40:19.457Z,2.23
2023-11-24T01:42:47.765Z,3.30
2023-11-24T01:45:16.155Z,2.60
2023-11-24T01:47:45.374Z,2.17
2023-11-24T01:50:14.381Z,1.92
2023-11-24T01:52:43.930Z,2.08
2023-11-24T01:55:15.332Z,1.73
2023-11-24T01:57:44.270Z,1.85
2023-11-24T02:00:15.053Z,1.63
2023-11-24T02:02:43.804Z,2.25
2023-11-24T02:05:12.899Z,1.60
2023-11-24T02:07:42.460Z,2.42
2023-11-24T02:10:15.540Z,2.08
2023-11-24T02:12:43.882Z,2.30
2023-11-24T02:15:12.370Z,1.77
2023-11-24T02:17:40.849Z,1.90
2023-11-24T02:20:14.927Z,2.00
2023-11-24T02:22:45.360Z,2.83
2023-11-24T02:25:14.220Z,2.30
2023-11-24T02:27:42.586Z,2.63
2023-11-24T02:30:12.892Z,2.65
2023-11-24T02:32:41.418Z,2.10
2023-11-24T02:35:11.091Z,3.13
2023-11-24T02:37:39.777Z,1.85
2023-11-24T02:40:11.126Z,2.47
2023-11-24T02:42:39.563Z,2.22
2023-11-24T02:45:08.960Z,2.45
2023-11-24T02:47:37.212Z,2.25
2023-11-24T02:50:06.006Z,2.60
2023-11-24T02:52:34.257Z,2.38
2023-11-24T02:55:03.323Z,2.40
2023-11-24T02:57:33.954Z,2.30
2023-11-24T03:00:03.145Z,2.15
2023-11-24T03:02:31.705Z,2.08
2023-11-24T03:05:00.262Z,1.90
2023-11-24T03:07:28.907Z,2.55
2023-11-24T03:09:57.363Z,2.20
2023-11-24T03:12:25.788Z,1.65
2023-11-24T03:14:55.522Z,1.83
2023-11-24T03:17:23.745Z,2.17
2023-11-24T03:19:51.912Z,1.92
2023-11-24T03:22:21.497Z,2.40
2023-11-24T03:24:49.751Z,3.00
2023-11-24T03:27:18.077Z,2.10
2023-11-24T03:29:46.422Z,2.78
2023-11-24T03:32:16.102Z,1.92
2023-11-24T03:34:44.429Z,2.63
2023-11-24T03:37:12.806Z,2.60
2023-11-24T03:39:41.041Z,2.45
2023-11-24T03:42:09.461Z,1.98
2023-11-24T03:44:39.512Z,2.63
2023-11-24T03:47:08.052Z,2.60
2023-11-24T03:49:37.632Z,2.65
2023-11-24T03:52:07.495Z,2.35
2023-11-24T03:54:35.843Z,2.92
2023-11-24T03:57:04.354Z,1.85
2023-11-24T03:59:33.908Z,2.60
2023-11-24T04:02:02.238Z,2.85
2023-11-24T04:04:30.712Z,3.05
2023-11-24T04:07:03.286Z,2.63
2023-11-24T04:09:31.572Z,4.70
2023-11-24T04:11:59.894Z,1.98
2023-11-24T04:14:28.715Z,3.10
2023-11-24T04:17:01.510Z,2.13
2023-11-24T04:19:29.910Z,3.83
2023-11-24T04:21:58.102Z,3.38
2023-11-24T04:24:27.757Z,2.40
2023-11-24T04:26:56.055Z,1.73
2023-11-24T04:29:25.424Z,3.00
2023-11-24T04:31:55.697Z,2.15
2023-11-24T04:34:25.134Z,2.20
2023-11-24T04:36:54.909Z,2.72
2023-11-24T04:39:23.303Z,2.65
2023-11-24T04:41:53.527Z,2.75
2023-11-24T04:44:23.544Z,1.70
2023-11-24T04:46:51.828Z,2.15
2023-11-24T04:49:20.878Z,1.88
2023-11-24T04:51:49.050Z,3.35
2023-11-24T04:54:17.346Z,2.15
2023-11-24T04:56:48.236Z,2.78
2023-11-24T04:59:19.958Z,2.47
2023-11-24T05:01:48.605Z,2.90
2023-11-24T05:04:16.968Z,2.08
2023-11-24T05:06:45.298Z,2.90
2023-11-24T05:09:14.232Z,1.80
2023-11-24T05:11:42.526Z,1.98
2023-11-24T05:14:10.988Z,3.67
2023-11-24T05:16:40.839Z,3.15
2023-11-24T05:19:09.156Z,2.65
2023-11-24T05:21:39.972Z,1.90
2023-11-24T05:24:10.245Z,2.25
2023-11-24T05:26:38.424Z,1.88
2023-11-24T05:29:06.739Z,2.28
2023-11-24T05:31:34.967Z,5.65
2023-11-24T05:34:05.043Z,2.35
2023-11-24T05:36:34.791Z,2.40
2023-11-24T05:39:03.025Z,2.50
2023-11-24T05:41:31.292Z,2.17
2023-11-24T05:43:59.906Z,1.90
2023-11-24T05:46:29.659Z,3.55
2023-11-24T05:48:58.112Z,2.80
2023-11-24T05:51:28.027Z,2.85
2023-11-24T05:53:56.454Z,2.65
2023-11-24T05:56:24.794Z,2.45
2023-11-24T05:58:53.564Z,2.40
2023-11-24T06:01:22.443Z,2.45
2023-11-24T06:03:51.751Z,2.75
2023-11-24T06:06:20.353Z,2.95
2023-11-24T06:08:50.193Z,1.90
2023-11-24T06:11:19.378Z,2.17
2023-11-24T06:13:57.807Z,2.30
2023-11-24T06:16:27.436Z,2.20
2023-11-24T06:18:56.472Z,2.42
2023-11-24T06:21:26.894Z,3.85
2023-11-24T06:23:59.596Z,2.42
2023-11-24T06:26:28.953Z,3.58
2023-11-24T06:28:57.966Z,2.03
2023-11-24T06:31:27.056Z,3.38
2023-11-24T06:34:04.375Z,2.40
2023-11-24T06:36:35.905Z,2.45
2023-11-24T06:39:12.767Z,2.67
2023-11-24T06:41:41.038Z,2.70
2023-11-24T06:44:09.716Z,1.90
2023-11-24T06:46:38.483Z,2.45
2023-11-24T06:49:08.227Z,2.78
2023-11-24T06:51:37.262Z,2.63
2023-11-24T06:54:07.408Z,2.65
2023-11-24T06:56:35.706Z,3.00
2023-11-24T06:59:04.214Z,3.28
2023-11-24T07:01:34.191Z,3.13
2023-11-24T07:04:03.142Z,2.47
2023-11-24T07:06:31.659Z,2.35
2023-11-24T07:09:00.277Z,3.15
2023-11-24T07:11:29.990Z,2.55
2023-11-24T07:13:58.420Z,2.70
2023-11-24T07:16:27.145Z,3.10
2023-11-24T07:18:55.701Z,3.92
2023-11-24T07:21:24.118Z,2.30
2023-11-24T07:23:52.383Z,4.20
2023-11-24T07:26:20.896Z,5.05
2023-11-24T07:28:50.615Z,3.67
2023-11-24T07:31:19.310Z,5.00
2023-11-24T07:33:50.469Z,3.28
2023-11-24T07:36:20.464Z,3.05
2023-11-24T07:38:48.813Z,3.10
2023-11-24T07:41:17.572Z,3.10
2023-11-24T07:43:45.848Z,3.00
2023-11-24T07:46:15.476Z,3.20
2023-11-24T07:48:45.227Z,4.22
2023-11-24T07:51:13.706Z,3.53
2023-11-24T07:53:42.031Z,3.60
2023-11-24T07:56:10.527Z,3.38
2023-11-24T07:58:39.153Z,2.40
2023-11-24T08:01:09.112Z,2.30
2023-11-24T08:03:38.973Z,2.78
2023-11-24T08:06:09.139Z,3.47
2023-11-24T08:08:37.712Z,2.45
2023-11-24T08:11:06.850Z,2.15
2023-11-24T08:13:35.796Z,2.80
2023-11-24T08:16:04.963Z,2.90
2023-11-24T08:18:34.451Z,3.08
2023-11-24T08:21:04.334Z,4.15
2023-11-24T08:23:32.731Z,3.03
2023-11-24T08:26:00.985Z,2.65
2023-11-24T08:28:31.746Z,3.42
2023-11-24T08:31:06.500Z,3.20
2023-11-24T08:33:34.747Z,2.67
2023-11-24T08:36:05.660Z,2.58
2023-11-24T08:38:35.910Z,3.35
2023-11-24T08:41:10.802Z,2.65
2023-11-24T08:43:39.392Z,2.95
2023-11-24T08:46:09.063Z,2.55
2023-11-24T08:48:37.525Z,2.63
2023-11-24T08:51:09.227Z,3.83
2023-11-24T08:53:37.805Z,5.03
2023-11-24T08:56:06.617Z,3.00
2023-11-24T08:58:34.954Z,4.00
2023-11-24T09:01:03.395Z,3.33
2023-11-24T09:03:31.728Z,2.60
2023-11-24T09:06:00.221Z,2.50
2023-11-24T09:08:29.925Z,2.77
2023-11-24T09:41:10.134Z,2.00
2023-11-24T09:44:05.526Z,2.50
2023-11-24T09:46:46.630Z,3.40
2023-11-24T09:49:33.360Z,3.20
2023-11-24T09:52:05.404Z,3.40
2023-11-24T09:54:33.777Z,3.33
2023-11-24T09:57:02.241Z,2.40
2023-11-24T09:59:31.941Z,3.03
2023-11-24T10:02:02.222Z,2.67
2023-11-24T10:04:31.691Z,3.60
2023-11-24T10:07:00.363Z,2.20
2023-11-24T10:09:29.565Z,2.70
2023-11-24T10:11:59.948Z,2.80
2023-11-24T10:14:28.174Z,1.93
2023-11-24T10:16:57.849Z,4.73
2023-11-24T10:19:28.736Z,2.60
2023-11-24T10:21:58.265Z,2.50
2023-11-24T10:24:33.306Z,2.63
2023-11-24T10:27:19.529Z,2.07
2023-11-24T10:29:48.354Z,3.80
2023-11-24T10:32:18.276Z,2.93
2023-11-24T10:34:47.734Z,2.37
2023-11-24T10:37:18.605Z,2.37
2023-11-24T10:39:48.296Z,2.30
2023-11-24T10:42:20.434Z,2.93
2023-11-24T10:44:56.676Z,2.70
2023-11-24T10:47:31.378Z,2.67
2023-11-24T10:50:05.581Z,3.57
2023-11-24T10:52:38.370Z,2.47
2023-11-24T10:55:11.993Z,2.20
2023-11-24T10:57:42.106Z,3.87
2023-11-24T11:00:15.631Z,2.57
2023-11-24T11:02:45.658Z,2.90
2023-11-24T11:05:25.826Z,2.90
2023-11-24T11:11:27.119Z,2.97
2023-11-24T11:13:58.911Z,2.83
2023-11-24T11:16:27.339Z,2.73
2023-11-24T11:18:57.593Z,3.60
2023-11-24T11:21:41.252Z,2.80
2023-11-24T11:24:25.128Z,4.50
2023-11-24T11:26:54.268Z,2.23
2023-11-24T11:29:24.541Z,2.70
2023-11-24T11:31:53.510Z,3.10
2023-11-24T11:34:31.124Z,2.63
2023-11-24T11:37:08.020Z,2.80
2023-11-24T11:39:38.636Z,3.10
2023-11-24T11:42:10.544Z,2.40
2023-11-24T11:44:41.302Z,2.63
2023-11-24T11:47:27.823Z,2.80
2023-11-24T11:49:59.088Z,2.40
2023-11-24T11:52:28.715Z,2.23
2023-11-24T11:54:59.685Z,2.77
2023-11-24T11:57:29.110Z,3.27
2023-11-24T11:59:57.769Z,3.00
2023-11-24T12:02:26.485Z,2.30
2023-11-24T12:04:54.929Z,3.90
2023-11-24T12:07:24.720Z,2.73
2023-11-24T12:09:55.342Z,3.53
2023-11-24T12:12:24.380Z,2.65
2023-11-24T12:14:55.911Z,3.28
2023-11-24T12:17:25.293Z,3.50
2023-11-24T12:19:55.031Z,3.37
2023-11-24T12:22:25.154Z,2.47
2023-11-24T12:24:54.559Z,2.53
2023-11-24T12:27:23.384Z,2.10
2023-11-24T12:29:52.986Z,3.53
2023-11-24T12:32:26.552Z,3.15
2023-11-24T12:34:55.195Z,2.40
2023-11-24T12:37:25.216Z,2.90
2023-11-24T12:39:53.712Z,2.60
2023-11-24T12:42:23.755Z,2.95
2023-11-24T12:44:52.969Z,1.95
2023-11-24T12:47:41.380Z,2.70
2023-11-24T12:50:14.189Z,2.92
2023-11-24T12:52:46.344Z,2.33
2023-11-24T12:55:15.108Z,1.90
2023-11-24T12:57:44.564Z,2.90
2023-11-24T13:00:16.590Z,2.15
2023-11-24T13:02:46.801Z,3.17
2023-11-24T13:05:17.651Z,3.05
2023-11-24T13:07:49.005Z,4.53
2023-11-24T13:10:18.572Z,2.60
2023-11-24T13:12:47.166Z,2.55
2023-11-24T13:15:16.429Z,2.33
2023-11-24T13:17:45.221Z,1.85
2023-11-24T13:20:14.750Z,3.35
2023-11-24T13:22:44.982Z,3.83
2023-11-24T13:25:15.686Z,1.75
2023-11-24T13:28:16.356Z,1.95
2023-11-24T13:33:41.352Z,2.40
2023-11-24T13:36:10.428Z,3.25
2023-11-24T13:41:53.354Z,2.90
2023-11-24T13:44:22.999Z,2.60
2023-11-24T13:46:52.839Z,2.63
2023-11-24T13:49:23.658Z,4.55
2023-11-24T13:52:05.288Z,1.87
2023-11-24T13:54:35.118Z,3.20
2023-11-24T13:57:05.165Z,2.75
2023-11-24T13:59:33.375Z,2.25
2023-11-24T14:02:01.934Z,3.15
2023-11-24T14:04:34.273Z,2.70
2023-11-24T14:07:03.767Z,3.25
2023-11-24T14:09:33.443Z,3.75
2023-11-24T14:12:02.107Z,2.65
2023-11-24T14:14:31.713Z,2.50
2023-11-24T14:17:03.190Z,2.75
2023-11-24T14:19:31.748Z,2.50
2023-11-24T14:22:02.004Z,2.55
2023-11-24T14:24:30.332Z,2.53
2023-11-24T14:26:58.651Z,2.83
2023-11-24T14:29:29.353Z,2.20
2023-11-24T14:31:59.256Z,2.90
2023-11-24T14:34:27.524Z,3.17
2023-11-24T14:36:55.840Z,3.95
2023-11-24T14:39:27.960Z,4.60
2023-11-24T14:41:56.677Z,3.22
2023-11-24T14:44:25.492Z,3.78
2023-11-24T14:46:54.085Z,4.03
2023-11-24T14:49:24.130Z,2.10
2023-11-24T14:51:53.635Z,2.55
2023-11-24T14:54:24.396Z,2.33
2023-11-24T14:56:52.734Z,2.42
2023-11-24T14:59:21.200Z,1.75
2023-11-24T15:01:59.172Z,3.08
2023-11-24T15:04:32.210Z,2.25
2023-11-24T15:07:02.073Z,1.95
2023-11-24T15:09:31.432Z,2.50
2023-11-24T15:11:59.652Z,2.33
2023-11-24T15:14:34.505Z,2.55
2023-11-24T15:17:06.308Z,1.88
2023-11-24T15:19:40.183Z,2.55
2023-11-24T15:22:19.961Z,2.67
2023-11-24T15:24:50.800Z,2.90
2023-11-24T15:27:19.980Z,2.65
2023-11-24T15:29:48.259Z,2.72
2023-11-24T15:32:21.142Z,3.00
2023-11-24T15:34:52.868Z,4.50
2023-11-24T15:37:21.415Z,5.95
2023-11-24T15:39:57.739Z,3.13
2023-11-24T15:42:30.237Z,3.30
2023-11-24T15:45:00.411Z,3.30
2023-11-24T15:47:30.022Z,3.65
2023-11-24T15:50:01.812Z,3.85
2023-11-24T15:52:30.263Z,3.90
2023-11-24T15:54:58.883Z,3.78
2023-11-24T15:57:29.291Z,3.33
2023-11-24T16:00:02.541Z,3.83
2023-11-24T16:02:40.209Z,3.33
2023-11-24T16:05:13.477Z,3.95
2023-11-24T16:07:42.652Z,3.55
2023-11-24T16:10:17.919Z,3.55
2023-11-24T16:12:48.460Z,4.90
2023-11-24T16:15:18.182Z,2.95
2023-11-24T16:17:48.527Z,4.57
2023-11-24T16:20:18.622Z,2.80
2023-11-24T16:22:47.039Z,2.83
2023-11-24T16:25:15.352Z,4.32
2023-11-24T16:27:43.561Z,3.15
2023-11-24T16:30:12.025Z,2.30
2023-11-24T16:32:40.679Z,3.20
2023-11-24T16:35:10.360Z,2.45
2023-11-24T16:37:40.304Z,3.00
2023-11-24T16:40:10.446Z,2.75
2023-11-24T16:42:38.941Z,2.72
2023-11-24T16:45:09.972Z,2.75
2023-11-24T16:47:39.066Z,2.65
2023-11-24T16:50:09.351Z,3.10
2023-11-24T16:52:47.365Z,2.45
2023-11-24T16:55:17.673Z,2.65
2023-11-24T16:57:46.079Z,2.10
2023-11-24T17:00:17.011Z,2.60
2023-11-24T17:02:49.968Z,1.88
2023-11-24T17:05:19.681Z,2.20
2023-11-24T17:07:49.588Z,2.45
2023-11-24T17:10:19.182Z,1.90
2023-11-24T17:12:47.807Z,1.95
2023-11-24T17:15:23.329Z,2.55
2023-11-24T17:17:53.415Z,2.10
2023-11-24T17:20:21.965Z,3.15
2023-11-24T17:22:51.698Z,2.38
2023-11-24T17:25:28.359Z,2.97
2023-11-24T17:28:03.871Z,3.35
2023-11-24T17:30:42.918Z,4.05
2023-11-24T17:33:11.644Z,3.63
2023-11-24T17:35:45.773Z,3.15
2023-11-24T17:38:22.117Z,4.30
2023-11-24T17:40:50.867Z,5.05
2023-11-24T17:43:19.426Z,8.13
2023-11-24T17:45:49.228Z,5.78
2023-11-24T17:48:19.206Z,4.15
2023-11-24T17:50:48.572Z,3.47
2023-11-24T17:53:19.797Z,2.80
2023-11-24T17:55:48.832Z,3.15
2023-11-24T17:58:17.834Z,2.30
2023-11-24T18:00:46.820Z,3.47
2023-11-24T18:03:15.459Z,2.67
2023-11-24T18:05:44.779Z,2.30
2023-11-24T18:09:05.063Z,2.72
2023-11-24T18:34:29.390Z,7.25
2023-11-24T18:36:59.154Z,6.28
2023-11-24T18:39:29.528Z,5.82
2023-11-24T18:42:02.263Z,6.30
2023-11-24T18:44:30.797Z,7.72
2023-11-24T18:46:59.917Z,5.03
2023-11-24T18:49:32.490Z,6.85
2023-11-24T18:52:01.001Z,4.80
2023-11-24T18:54:29.991Z,6.63
2023-11-24T18:56:59.453Z,5.63
2023-11-24T18:59:27.684Z,7.55
2023-11-24T19:01:58.445Z,9.77
2023-11-24T19:04:26.899Z,6.68
2023-11-24T19:06:57.003Z,4.63
2023-11-24T19:09:25.723Z,6.95
2023-11-24T19:11:54.188Z,6.72
2023-11-24T19:14:25.274Z,7.05
2023-11-24T19:16:54.229Z,7.18
2023-11-24T19:19:22.659Z,6.50
2023-11-24T19:21:51.185Z,6.13
2023-11-24T19:24:20.825Z,7.05
2023-11-24T19:26:49.244Z,7.07
2023-11-24T19:29:17.583Z,7.47
2023-11-24T19:31:46.238Z,8.50
2023-11-24T19:34:15.149Z,6.38
2023-11-24T19:36:46.064Z,7.40
2023-11-24T19:39:14.490Z,7.68
2023-11-24T19:41:44.261Z,6.45
2023-11-24T19:44:13.842Z,8.45
2023-11-24T19:46:42.488Z,7.38
2023-11-24T19:49:11.375Z,5.40
2023-11-24T19:51:39.909Z,7.38
2023-11-24T19:54:09.410Z,7.57
2023-11-24T19:56:37.972Z,6.78
2023-11-24T19:59:07.815Z,5.38
2023-11-24T20:01:38.226Z,6.55
2023-11-24T20:04:08.189Z,7.85
2023-11-24T20:06:37.056Z,6.15
2023-11-24T20:09:09.790Z,8.85
2023-11-24T20:11:38.011Z,7.03
2023-11-24T20:14:10.053Z,7.10
2023-11-24T20:16:38.405Z,6.55
2023-11-24T20:19:06.946Z,8.10
2023-11-24T20:21:35.282Z,9.73
2023-11-24T20:24:03.692Z,8.13
2023-11-24T20:26:32.812Z,5.55
2023-11-24T20:29:01.032Z,8.32
2023-11-24T20:31:30.643Z,5.47
2023-11-24T20:33:59.168Z,8.55
2023-11-24T20:36:27.552Z,8.82
2023-11-24T20:38:56.113Z,9.25
2023-11-24T20:41:24.462Z,5.40
2023-11-24T20:43:52.796Z,6.45
2023-11-24T20:46:21.092Z,8.60
2023-11-24T20:48:50.783Z,6.75
2023-11-24T20:51:19.387Z,6.70
2023-11-24T20:53:47.573Z,6.47
2023-11-24T20:56:15.818Z,7.78
2023-11-24T20:58:43.992Z,9.07
2023-11-24T21:01:13.031Z,8.05
2023-11-24T21:03:42.444Z,7.57
2023-11-24T21:06:12.070Z,5.40
2023-11-24T21:08:40.372Z,6.80
2023-11-24T21:11:08.619Z,8.32
2023-11-24T21:13:37.008Z,5.10
2023-11-24T21:16:06.218Z,4.40
2023-11-24T21:18:34.494Z,4.43
2023-11-24T21:21:02.765Z,5.63
2023-11-24T21:23:32.351Z,6.82
2023-11-24T21:26:00.646Z,5.43
2023-11-24T21:28:29.061Z,5.88
2023-11-24T21:30:57.377Z,7.13
2023-11-24T21:33:25.984Z,5.50
2023-11-24T21:35:54.415Z,4.75
2023-11-24T21:38:22.693Z,3.53
2023-11-24T21:40:52.456Z,4.28
2023-11-24T21:43:20.721Z,4.65
2023-11-24T21:45:49.226Z,4.75
2023-11-24T21:48:17.690Z,3.15
2023-11-24T21:50:46.008Z,4.55
2023-11-24T21:53:15.729Z,5.53
2023-11-24T21:58:13.916Z,3.70
2023-11-24T22:00:42.245Z,3.90
2023-11-24T22:03:10.787Z,3.60
2023-11-24T22:05:39.904Z,3.42
2023-11-24T22:08:08.225Z,3.28
2023-11-24T22:10:37.538Z,3.35
2023-11-24T22:13:05.818Z,3.10
2023-11-24T22:15:37.764Z,3.63
2023-11-24T22:18:12.958Z,3.00
2023-11-24T22:20:41.600Z,4.20
2023-11-24T22:23:09.865Z,2.67
2023-11-24T22:25:38.319Z,3.10
2023-11-24T22:28:07.130Z,6.78
2023-11-24T22:30:35.790Z,3.35
2023-11-24T22:33:05.960Z,4.95
2023-11-24T22:35:34.318Z,1.90
2023-11-24T22:38:02.992Z,4.13
2023-11-24T22:40:33.682Z,3.92
2023-11-24T22:43:01.903Z,3.10
2023-11-24T22:45:33.297Z,3.15
2023-11-24T22:48:01.632Z,5.00
2023-11-24T22:50:31.346Z,4.28
2023-11-24T22:52:59.531Z,3.20
2023-11-24T22:55:28.374Z,3.88
2023-11-24T22:57:59.178Z,4.28
2023-11-24T23:00:37.757Z,3.30
2023-11-24T23:03:06.283Z,3.38
2023-11-24T23:05:36.507Z,3.83
2023-11-24T23:08:04.895Z,2.78
2023-11-24T23:10:33.505Z,3.55
2023-11-24T23:13:03.054Z,1.92
2023-11-24T23:15:32.659Z,3.22
2023-11-24T23:18:01.406Z,2.88
2023-11-24T23:20:30.287Z,4.03
2023-11-24T23:22:59.886Z,4.28
2023-11-24T23:25:28.270Z,3.33
2023-11-24T23:27:56.993Z,7.07
2023-11-24T23:30:25.444Z,3.03
2023-11-24T23:32:56.354Z,3.95
2023-11-24T23:35:28.986Z,4.05
2023-11-24T23:37:59.067Z,3.58
2023-11-24T23:40:29.195Z,3.05
2023-11-24T23:42:57.627Z,2.20
2023-11-24T23:45:26.313Z,2.95
2023-11-24T23:47:54.862Z,4.80
2023-11-24T23:50:30.487Z,5.45
2023-11-24T23:53:01.392Z,3.72
2023-11-24T23:55:32.038Z,2.97
2023-11-24T23:58:00.311Z,4.03
